createdAt,value
2018-11-06T00:00:29.133Z,60.63
2018-11-06T00:03:02.413Z,60.72
2018-11-06T00:05:30.007Z,60.91
2018-11-06T00:07:57.687Z,60.86
2018-11-06T00:10:25.354Z,60.98
2018-11-06T00:12:53.005Z,60.94
2018-11-06T00:15:20.630Z,61.01
2018-11-06T00:17:48.369Z,61.22
2018-11-06T00:20:15.978Z,61.11
2018-11-06T00:22:43.571Z,61.37
2018-11-06T00:25:12.854Z,61.30
2018-11-06T00:27:40.666Z,61.86
2018-11-06T00:30:11.111Z,61.68
2018-11-06T00:32:39.360Z,61.70
2018-11-06T00:35:08.502Z,61.81
2018-11-06T00:37:36.168Z,61.90
2018-11-06T00:40:03.981Z,61.52
2018-11-06T00:42:31.632Z,61.95
2018-11-06T00:44:59.263Z,61.53
2018-11-06T00:47:26.924Z,61.79
2018-11-06T00:49:54.479Z,61.25
2018-11-06T00:52:22.103Z,61.74
2018-11-06T00:54:49.728Z,61.67
2018-11-06T00:57:17.347Z,61.83
2018-11-06T00:59:44.950Z,62.38
2018-11-06T01:02:12.632Z,62.50
2018-11-06T01:04:40.230Z,62.05
2018-11-06T01:07:07.876Z,62.25
2018-11-06T01:09:35.491Z,62.30
2018-11-06T01:12:03.121Z,62.75
2018-11-06T01:14:30.762Z,62.54
2018-11-06T01:16:58.385Z,62.93
2018-11-06T01:19:25.989Z,62.32
2018-11-06T01:21:53.627Z,62.33
2018-11-06T01:24:21.236Z,62.45
2018-11-06T01:26:48.883Z,62.61
2018-11-06T01:29:16.551Z,62.99
2018-11-06T01:31:44.179Z,63.13
2018-11-06T01:34:12.639Z,62.56
2018-11-06T01:36:40.256Z,62.87
2018-11-06T01:39:08.920Z,63.01
2018-11-06T01:41:36.527Z,63.27
2018-11-06T01:44:04.257Z,63.46
2018-11-06T01:46:31.877Z,63.41
2018-11-06T01:48:59.624Z,63.20
2018-11-06T01:51:27.200Z,63.54
2018-11-06T01:53:54.831Z,63.48
2018-11-06T01:56:22.497Z,63.25
2018-11-06T01:58:50.101Z,63.18
2018-11-06T02:01:17.702Z,63.69
2018-11-06T02:03:45.307Z,63.48
2018-11-06T02:06:12.953Z,63.39
2018-11-06T02:08:40.687Z,63.55
2018-11-06T02:11:08.245Z,63.57
2018-11-06T02:13:35.846Z,63.38
2018-11-06T02:16:03.518Z,63.58
2018-11-06T02:18:31.160Z,63.33
2018-11-06T02:20:58.765Z,63.36
2018-11-06T02:23:26.364Z,63.20
2018-11-06T02:25:54.048Z,63.47
2018-11-06T02:28:21.710Z,63.56
2018-11-06T02:30:49.361Z,63.54
2018-11-06T02:33:16.944Z,63.56
2018-11-06T02:35:44.556Z,63.44
2018-11-06T02:38:12.174Z,63.65
2018-11-06T02:40:39.764Z,63.80
2018-11-06T02:43:07.398Z,63.37
2018-11-06T02:45:35.016Z,63.38
2018-11-06T02:48:02.662Z,63.56
2018-11-06T02:50:30.240Z,63.48
2018-11-06T02:52:57.870Z,63.82
2018-11-06T02:55:25.495Z,63.67
2018-11-06T02:57:53.168Z,63.86
2018-11-06T03:00:20.728Z,63.65
2018-11-06T03:02:48.398Z,63.69
2018-11-06T03:05:16.099Z,63.63
2018-11-06T03:07:43.681Z,63.38
2018-11-06T03:10:12.362Z,63.40
2018-11-06T03:12:41.197Z,63.36
2018-11-06T03:15:09.698Z,63.59
2018-11-06T03:17:37.415Z,63.83
2018-11-06T03:20:05.036Z,63.60
2018-11-06T03:22:32.689Z,63.67
2018-11-06T03:25:00.327Z,63.68
2018-11-06T03:27:28.067Z,63.54
2018-11-06T03:29:55.707Z,63.49
2018-11-06T03:32:23.310Z,63.87
2018-11-06T03:34:50.935Z,63.85
2018-11-06T03:37:18.599Z,63.71
2018-11-06T03:39:46.206Z,63.97
2018-11-06T03:42:13.837Z,63.75
2018-11-06T03:44:41.464Z,63.85
2018-11-06T03:47:09.134Z,63.74
2018-11-06T03:49:36.793Z,63.72
2018-11-06T03:52:04.722Z,63.52
2018-11-06T03:54:32.472Z,64.00
2018-11-06T03:57:00.068Z,64.32
2018-11-06T03:59:27.695Z,63.60
2018-11-06T04:01:55.336Z,63.40
2018-11-06T04:04:22.917Z,63.57
2018-11-06T04:06:50.659Z,63.41
2018-11-06T04:09:18.232Z,64.06
2018-11-06T04:11:45.804Z,63.33
2018-11-06T04:14:13.383Z,64.06
2018-11-06T04:16:41.021Z,63.76
2018-11-06T04:19:09.079Z,63.37
2018-11-06T04:21:39.606Z,63.59
2018-11-06T04:24:10.598Z,63.56
2018-11-06T04:26:38.664Z,63.35
2018-11-06T04:29:07.424Z,63.54
2018-11-06T04:31:36.060Z,63.56
2018-11-06T04:34:03.647Z,63.58
2018-11-06T04:36:31.361Z,63.48
2018-11-06T04:38:59.377Z,63.39
2018-11-06T04:41:27.220Z,63.51
2018-11-06T04:43:54.832Z,63.46
2018-11-06T04:46:23.039Z,63.49
2018-11-06T04:48:51.128Z,63.61
2018-11-06T04:51:25.386Z,63.82
2018-11-06T04:53:57.466Z,63.52
2018-11-06T04:56:25.480Z,63.43
2018-11-06T04:58:53.137Z,63.10
2018-11-06T05:01:20.869Z,63.49
2018-11-06T05:03:48.536Z,63.23
2018-11-06T05:06:17.237Z,63.06
2018-11-06T05:08:45.192Z,63.37
2018-11-06T05:11:13.299Z,63.22
2018-11-06T05:13:40.997Z,63.38
2018-11-06T05:16:08.636Z,63.33
2018-11-06T05:18:36.231Z,63.46
2018-11-06T05:21:04.711Z,63.11
2018-11-06T05:23:32.320Z,63.30
2018-11-06T05:25:59.962Z,63.94
2018-11-06T05:28:27.839Z,63.71
2018-11-06T05:30:55.479Z,63.62
2018-11-06T05:33:23.045Z,63.49
2018-11-06T05:35:50.684Z,63.92
2018-11-06T05:38:18.305Z,63.87
2018-11-06T05:41:04.421Z,64.25
2018-11-06T05:43:32.161Z,64.38
2018-11-06T05:45:59.768Z,64.31
2018-11-06T05:48:27.410Z,64.21
2018-11-06T05:50:55.023Z,63.91
2018-11-06T05:53:22.722Z,63.17
2018-11-06T05:55:50.449Z,63.10
2018-11-06T05:58:18.096Z,62.86
2018-11-06T06:00:46.155Z,62.87
2018-11-06T06:03:13.927Z,62.52
2018-11-06T06:05:41.620Z,62.38
2018-11-06T06:08:09.281Z,62.17
2018-11-06T06:10:37.285Z,62.17
2018-11-06T06:13:05.295Z,62.13
2018-11-06T06:15:32.976Z,61.98
2018-11-06T06:18:00.644Z,61.96
2018-11-06T06:20:28.317Z,61.87
2018-11-06T06:22:56.038Z,61.81
2018-11-06T06:25:23.679Z,61.74
2018-11-06T06:27:51.364Z,61.66
2018-11-06T06:30:18.998Z,61.43
2018-11-06T06:32:46.652Z,61.94
2018-11-06T06:35:14.348Z,61.75
2018-11-06T06:37:42.256Z,62.40
2018-11-06T06:40:11.887Z,62.54
2018-11-06T06:42:39.606Z,62.64
2018-11-06T06:45:10.271Z,62.79
2018-11-06T06:47:37.991Z,62.71
2018-11-06T06:50:07.540Z,62.62
2018-11-06T06:52:35.225Z,62.67
2018-11-06T06:55:03.258Z,62.79
2018-11-06T06:57:36.582Z,62.74
2018-11-06T07:00:04.790Z,62.53
2018-11-06T07:02:32.468Z,62.17
2018-11-06T07:05:00.089Z,62.13
2018-11-06T07:07:27.669Z,62.40
2018-11-06T07:09:55.254Z,62.54
2018-11-06T07:12:22.888Z,62.40
2018-11-06T07:14:50.612Z,62.39
2018-11-06T07:17:18.245Z,62.43
2018-11-06T07:19:45.876Z,62.26
2018-11-06T07:22:13.489Z,61.80
2018-11-06T07:24:41.064Z,61.98
2018-11-06T07:27:08.736Z,61.75
2018-11-06T07:29:36.368Z,61.96
2018-11-06T07:32:04.231Z,61.66
2018-11-06T07:34:31.961Z,61.77
2018-11-06T07:36:59.549Z,62.01
2018-11-06T07:39:27.186Z,61.93
2018-11-06T07:41:54.873Z,61.77
2018-11-06T07:44:22.529Z,61.57
2018-11-06T07:46:50.112Z,61.71
2018-11-06T07:49:17.711Z,61.31
2018-11-06T07:51:45.379Z,61.45
2018-11-06T07:54:12.989Z,61.29
2018-11-06T07:56:40.649Z,61.35
2018-11-06T07:59:08.798Z,61.22
2018-11-06T08:01:37.000Z,61.14
2018-11-06T08:04:04.815Z,61.37
2018-11-06T08:06:32.406Z,61.54
2018-11-06T08:09:00.132Z,61.19
2018-11-06T08:11:27.766Z,61.08
2018-11-06T08:13:55.384Z,60.99
2018-11-06T08:16:23.025Z,61.04
2018-11-06T08:18:50.656Z,61.07
2018-11-06T08:21:18.277Z,61.04
2018-11-06T08:23:45.977Z,60.91
2018-11-06T08:26:13.542Z,60.84
2018-11-06T08:28:41.338Z,60.82
2018-11-06T08:31:09.103Z,60.78
2018-11-06T08:33:36.644Z,60.62
2018-11-06T08:36:04.284Z,60.70
2018-11-06T08:38:31.904Z,60.64
2018-11-06T08:40:59.542Z,60.99
2018-11-06T08:43:27.194Z,60.62
2018-11-06T08:45:54.883Z,60.59
2018-11-06T08:48:22.495Z,60.59
2018-11-06T08:50:50.193Z,60.51
2018-11-06T08:53:17.836Z,60.42
2018-11-06T08:55:45.460Z,60.58
2018-11-06T08:58:13.139Z,60.58
2018-11-06T09:00:40.719Z,60.38
2018-11-06T09:03:08.361Z,60.59
2018-11-06T09:05:36.110Z,60.30
2018-11-06T09:08:03.696Z,60.29
2018-11-06T09:10:31.361Z,60.26
2018-11-06T09:12:58.949Z,60.14
2018-11-06T09:15:26.560Z,59.96
2018-11-06T09:17:54.176Z,60.17
2018-11-06T09:20:21.816Z,60.02
2018-11-06T09:22:49.517Z,60.10
2018-11-06T09:25:18.238Z,60.12
2018-11-06T09:27:45.830Z,60.06
2018-11-06T09:30:14.770Z,59.89
2018-11-06T09:32:42.396Z,59.88
2018-11-06T09:35:11.073Z,60.01
2018-11-06T09:37:38.941Z,59.86
2018-11-06T09:40:08.053Z,59.89
2018-11-06T09:42:35.756Z,59.76
2018-11-06T09:45:03.546Z,59.67
2018-11-06T09:47:31.189Z,59.51
2018-11-06T09:49:58.785Z,59.84
2018-11-06T09:52:26.427Z,59.53
2018-11-06T09:54:54.066Z,59.72
2018-11-06T09:57:21.702Z,59.94
2018-11-06T09:59:49.348Z,59.67
2018-11-06T10:02:17.004Z,59.82
2018-11-06T10:04:44.716Z,59.80
2018-11-06T10:07:12.569Z,59.72
2018-11-06T10:09:39.961Z,59.66
2018-11-06T10:12:07.605Z,59.61
2018-11-06T10:14:35.209Z,59.62
2018-11-06T10:17:02.826Z,59.75
2018-11-06T10:19:30.959Z,59.75
2018-11-06T10:21:58.815Z,59.69
2018-11-06T10:24:26.467Z,59.86
2018-11-06T10:26:54.039Z,59.58
2018-11-06T10:29:21.736Z,59.31
2018-11-06T10:31:49.509Z,59.32
2018-11-06T10:34:17.168Z,59.51
2018-11-06T10:36:44.789Z,59.17
2018-11-06T10:39:13.317Z,59.37
2018-11-06T10:41:41.016Z,59.05
2018-11-06T10:44:08.715Z,59.06
2018-11-06T10:46:36.572Z,58.96
2018-11-06T10:49:04.417Z,59.02
2018-11-06T10:51:32.105Z,59.02
2018-11-06T10:53:59.699Z,58.75
2018-11-06T10:56:27.368Z,58.93
2018-11-06T10:58:54.981Z,58.89
2018-11-06T11:01:28.329Z,59.06
2018-11-06T11:04:01.475Z,58.97
2018-11-06T11:06:29.173Z,58.73
2018-11-06T11:08:56.927Z,58.90
2018-11-06T11:11:24.512Z,58.84
2018-11-06T11:13:52.152Z,58.67
2018-11-06T11:16:19.748Z,58.91
2018-11-06T11:18:47.356Z,58.73
2018-11-06T11:21:15.032Z,59.25
2018-11-06T11:23:42.692Z,59.32
2018-11-06T11:26:10.328Z,59.57
2018-11-06T11:28:37.982Z,59.51
2018-11-06T11:31:11.604Z,59.48
2018-11-06T11:33:39.474Z,59.34
2018-11-06T11:36:07.229Z,59.44
2018-11-06T11:38:34.833Z,59.32
2018-11-06T11:41:02.559Z,59.56
2018-11-06T11:43:30.301Z,59.18
2018-11-06T11:45:58.075Z,59.21
2018-11-06T11:48:25.655Z,59.17
2018-11-06T11:50:53.330Z,59.25
2018-11-06T11:53:20.963Z,59.23
2018-11-06T11:55:48.544Z,58.91
2018-11-06T11:58:16.176Z,59.33
2018-11-06T12:00:43.871Z,59.34
2018-11-06T12:03:11.476Z,58.96
2018-11-06T12:05:39.683Z,59.39
2018-11-06T12:08:07.332Z,59.44
2018-11-06T12:10:35.002Z,59.37
2018-11-06T12:13:02.636Z,59.41
2018-11-06T12:15:30.223Z,59.58
2018-11-06T12:17:57.945Z,59.52
2018-11-06T12:20:25.604Z,59.60
2018-11-06T12:22:53.208Z,59.24
2018-11-06T12:25:21.045Z,59.04
2018-11-06T12:27:48.476Z,59.00
2018-11-06T12:30:17.021Z,59.04
2018-11-06T12:32:44.744Z,59.09
2018-11-06T12:35:13.536Z,58.67
2018-11-06T12:37:41.306Z,58.92
2018-11-06T12:40:12.756Z,59.16
2018-11-06T12:42:40.782Z,58.81
2018-11-06T12:45:10.012Z,58.92
2018-11-06T12:47:37.806Z,58.74
2018-11-06T12:50:06.576Z,58.64
2018-11-06T12:52:34.200Z,58.82
2018-11-06T12:55:01.819Z,58.63
2018-11-06T12:57:29.576Z,58.64
2018-11-06T12:59:57.184Z,58.73
2018-11-06T13:02:24.792Z,58.62
2018-11-06T13:04:52.412Z,58.67
2018-11-06T13:07:20.000Z,58.46
2018-11-06T13:09:47.662Z,58.89
2018-11-06T13:12:15.495Z,58.85
2018-11-06T13:14:43.128Z,59.01
2018-11-06T13:17:10.857Z,59.36
2018-11-06T13:19:38.653Z,59.45
2018-11-06T13:22:06.978Z,59.68
2018-11-06T13:24:34.617Z,59.74
2018-11-06T13:27:02.339Z,59.68
2018-11-06T13:29:30.017Z,59.80
2018-11-06T13:31:57.876Z,59.60
2018-11-06T13:34:25.518Z,60.14
2018-11-06T13:36:53.157Z,60.02
2018-11-06T13:39:20.870Z,59.99
2018-11-06T13:41:48.479Z,59.72
2018-11-06T13:44:16.269Z,59.57
2018-11-06T13:46:43.942Z,60.08
2018-11-06T13:49:11.531Z,60.01
2018-11-06T13:51:39.142Z,59.96
2018-11-06T13:54:06.782Z,59.97
2018-11-06T13:56:34.407Z,60.15
2018-11-06T13:59:02.063Z,60.11
2018-11-06T14:01:29.692Z,59.70
2018-11-06T14:03:57.301Z,59.33
2018-11-06T14:06:24.937Z,59.37
2018-11-06T14:08:52.613Z,59.14
2018-11-06T14:11:20.255Z,59.25
2018-11-06T14:13:47.917Z,58.91
2018-11-06T14:16:15.589Z,58.79
2018-11-06T14:18:43.194Z,58.99
2018-11-06T14:21:10.965Z,59.08
2018-11-06T14:23:38.576Z,58.89
2018-11-06T14:26:06.425Z,59.06
2018-11-06T14:28:34.064Z,58.90
2018-11-06T14:31:01.690Z,59.08
2018-11-06T14:33:29.466Z,58.96
2018-11-06T14:35:57.132Z,58.77
2018-11-06T14:38:24.803Z,58.89
2018-11-06T14:40:52.457Z,58.72
2018-11-06T14:43:20.161Z,58.73
2018-11-06T14:45:47.754Z,58.96
2018-11-06T14:48:15.444Z,58.98
2018-11-06T14:50:43.052Z,58.91
2018-11-06T14:53:10.676Z,58.92
2018-11-06T14:55:38.363Z,58.95
2018-11-06T14:58:05.972Z,58.88
2018-11-06T15:00:33.637Z,58.90
2018-11-06T15:03:01.335Z,59.06
2018-11-06T15:05:28.954Z,58.93
2018-11-06T15:07:56.575Z,59.08
2018-11-06T15:10:24.198Z,59.26
2018-11-06T15:12:51.896Z,59.21
2018-11-06T15:15:19.428Z,59.16
2018-11-06T15:17:47.631Z,59.24
2018-11-06T15:20:16.545Z,59.16
2018-11-06T15:22:44.665Z,59.06
2018-11-06T15:25:12.890Z,59.06
2018-11-06T15:27:40.659Z,58.95
2018-11-06T15:30:10.289Z,59.21
2018-11-06T15:32:38.121Z,59.13
2018-11-06T15:35:06.669Z,59.35
2018-11-06T15:37:34.745Z,59.26
2018-11-06T15:40:02.413Z,59.39
2018-11-06T15:42:30.477Z,59.38
2018-11-06T15:44:58.062Z,59.41
2018-11-06T15:47:25.684Z,59.37
2018-11-06T15:49:53.440Z,59.53
2018-11-06T15:52:21.084Z,59.38
2018-11-06T15:54:48.699Z,59.27
2018-11-06T15:57:16.373Z,59.43
2018-11-06T15:59:44.020Z,59.61
2018-11-06T16:02:11.713Z,59.23
2018-11-06T16:04:39.268Z,59.42
2018-11-06T16:07:07.113Z,59.57
2018-11-06T16:09:34.781Z,59.44
2018-11-06T16:12:02.497Z,59.70
2018-11-06T16:14:30.114Z,59.57
2018-11-06T16:16:57.721Z,59.64
2018-11-06T16:19:25.522Z,59.49
2018-11-06T16:21:53.114Z,59.46
2018-11-06T16:24:20.715Z,59.59
2018-11-06T16:26:48.424Z,59.72
2018-11-06T16:29:16.049Z,59.41
2018-11-06T16:31:44.253Z,59.59
2018-11-06T16:34:11.818Z,59.69
2018-11-06T16:36:39.441Z,59.77
2018-11-06T16:39:08.468Z,59.78
2018-11-06T16:41:36.140Z,59.52
2018-11-06T16:44:03.840Z,59.56
2018-11-06T16:46:31.514Z,59.67
2018-11-06T16:48:59.205Z,59.56
2018-11-06T16:51:26.846Z,59.48
2018-11-06T16:53:54.465Z,59.58
2018-11-06T16:56:22.260Z,59.60
2018-11-06T16:58:49.855Z,59.98
2018-11-06T17:01:17.681Z,59.59
2018-11-06T17:03:45.116Z,59.64
2018-11-06T17:06:18.376Z,59.49
2018-11-06T17:08:46.026Z,59.69
2018-11-06T17:11:13.673Z,59.59
2018-11-06T17:13:41.305Z,59.82
2018-11-06T17:16:08.956Z,60.05
2018-11-06T17:18:36.589Z,60.18
2018-11-06T17:21:04.325Z,60.00
2018-11-06T17:23:31.939Z,60.36
2018-11-06T17:25:59.616Z,60.59
2018-11-06T17:28:27.415Z,60.62
2018-11-06T17:30:55.027Z,60.76
2018-11-06T17:33:22.793Z,60.53
2018-11-06T17:35:50.545Z,60.79
2018-11-06T17:38:18.260Z,60.89
2018-11-06T17:40:46.005Z,61.19
2018-11-06T17:43:13.646Z,61.09
2018-11-06T17:45:41.352Z,60.97
2018-11-06T17:48:09.016Z,61.08
2018-11-06T17:50:36.683Z,61.11
2018-11-06T17:53:04.329Z,61.10
2018-11-06T17:55:32.012Z,61.03
2018-11-06T17:57:59.869Z,61.06
2018-11-06T18:00:27.565Z,60.86
2018-11-06T18:02:55.194Z,61.21
2018-11-06T18:05:24.286Z,61.24
2018-11-06T18:07:51.944Z,61.09
2018-11-06T18:10:20.208Z,61.24
2018-11-06T18:12:47.823Z,60.88
2018-11-06T18:15:15.449Z,60.83
2018-11-06T18:17:43.544Z,60.70
2018-11-06T18:20:12.188Z,60.70
2018-11-06T18:22:40.673Z,60.48
2018-11-06T18:25:08.917Z,60.46
2018-11-06T18:27:36.483Z,60.42
2018-11-06T18:30:05.028Z,60.47
2018-11-06T18:32:32.714Z,60.46
2018-11-06T18:35:00.612Z,60.50
2018-11-06T18:37:28.212Z,60.34
2018-11-06T18:39:55.813Z,60.19
2018-11-06T18:42:23.440Z,60.31
2018-11-06T18:44:51.081Z,60.08
2018-11-06T18:47:18.763Z,60.35
2018-11-06T18:49:46.440Z,60.53
2018-11-06T18:52:14.082Z,60.53
2018-11-06T18:54:41.739Z,60.41
2018-11-06T18:57:09.427Z,60.83
2018-11-06T18:59:37.847Z,60.85
2018-11-06T19:02:06.232Z,61.05
2018-11-06T19:04:33.962Z,61.35
2018-11-06T19:07:01.552Z,61.08
2018-11-06T19:09:29.162Z,61.33
2018-11-06T19:11:56.778Z,61.18
2018-11-06T19:14:24.478Z,61.40
2018-11-06T19:16:52.366Z,61.37
2018-11-06T19:19:19.937Z,61.41
2018-11-06T19:21:47.573Z,61.27
2018-11-06T19:24:15.196Z,61.56
2018-11-06T19:26:42.910Z,61.23
2018-11-06T19:29:10.504Z,61.33
2018-11-06T19:31:38.240Z,61.23
2018-11-06T19:34:05.928Z,61.52
2018-11-06T19:36:33.609Z,61.36
2018-11-06T19:39:01.353Z,61.41
2018-11-06T19:41:28.956Z,61.52
2018-11-06T19:43:56.613Z,61.49
2018-11-06T19:46:24.220Z,61.40
2018-11-06T19:48:51.880Z,61.34
2018-11-06T19:51:19.472Z,61.44
2018-11-06T19:53:47.181Z,61.70
2018-11-06T19:56:14.809Z,61.52
2018-11-06T19:58:42.434Z,61.35
2018-11-06T20:01:10.168Z,61.27
2018-11-06T20:03:37.792Z,61.63
2018-11-06T20:06:05.873Z,61.60
2018-11-06T20:08:33.435Z,61.80
2018-11-06T20:11:01.055Z,61.83
2018-11-06T20:13:28.691Z,61.87
2018-11-06T20:15:56.355Z,61.98
2018-11-06T20:18:24.159Z,61.94
2018-11-06T20:20:51.796Z,61.86
2018-11-06T20:23:20.486Z,62.18
2018-11-06T20:25:49.211Z,62.07
2018-11-06T20:28:17.504Z,62.03
2018-11-06T20:30:45.516Z,61.55
2018-11-06T20:33:13.157Z,61.77
2018-11-06T20:35:41.462Z,61.82
2018-11-06T20:38:10.034Z,61.75
2018-11-06T20:40:38.715Z,62.19
2018-11-06T20:43:06.957Z,61.90
2018-11-06T20:45:34.578Z,61.95
2018-11-06T20:48:03.033Z,62.01
2018-11-06T20:50:31.590Z,61.82
2018-11-06T20:52:59.875Z,62.03
2018-11-06T20:55:27.557Z,62.18
2018-11-06T20:57:55.252Z,62.05
2018-11-06T21:00:28.367Z,62.09
2018-11-06T21:02:57.441Z,62.27
2018-11-06T21:05:25.183Z,62.19
2018-11-06T21:07:52.901Z,62.13
2018-11-06T21:10:22.191Z,62.09
2018-11-06T21:12:50.114Z,62.10
2018-11-06T21:15:17.847Z,62.24
2018-11-06T21:17:45.554Z,62.26
2018-11-06T21:20:14.283Z,62.31
2018-11-06T21:22:42.489Z,62.44
2018-11-06T21:25:10.624Z,62.33
2018-11-06T21:27:39.072Z,62.42
2018-11-06T21:30:09.528Z,62.34
2018-11-06T21:32:37.858Z,62.35
2018-11-06T21:35:06.137Z,62.04
2018-11-06T21:37:34.269Z,62.06
2018-11-06T21:40:01.937Z,62.52
2018-11-06T21:42:29.937Z,62.47
2018-11-06T21:44:58.040Z,62.29
2018-11-06T21:47:26.607Z,62.68
2018-11-06T21:49:54.295Z,62.45
2018-11-06T21:52:21.942Z,62.73
2018-11-06T21:54:49.931Z,62.65
2018-11-06T21:57:17.522Z,62.31
2018-11-06T21:59:45.504Z,62.49
2018-11-06T22:02:13.221Z,62.58
2018-11-06T22:04:41.022Z,62.54
2018-11-06T22:07:09.043Z,62.71
2018-11-06T22:09:36.771Z,62.49
2018-11-06T22:12:05.150Z,62.68
2018-11-06T22:14:33.090Z,62.52
2018-11-06T22:17:00.708Z,62.69
2018-11-06T22:19:28.335Z,62.32
2018-11-06T22:21:56.412Z,62.51
2018-11-06T22:24:24.459Z,62.43
2018-11-06T22:26:52.533Z,62.49
2018-11-06T22:29:20.698Z,62.45
2018-11-06T22:31:48.668Z,62.74
2018-11-06T22:34:16.635Z,62.76
2018-11-06T22:36:45.074Z,62.42
2018-11-06T22:39:13.070Z,62.65
2018-11-06T22:41:41.042Z,62.73
2018-11-06T22:44:09.297Z,62.58
2018-11-06T22:46:37.288Z,62.81
2018-11-06T22:49:05.860Z,62.70
2018-11-06T22:51:33.856Z,62.71
2018-11-06T22:54:01.494Z,62.85
2018-11-06T22:56:29.222Z,62.98
2018-11-06T22:58:57.389Z,62.98
2018-11-06T23:01:25.801Z,62.87
2018-11-06T23:03:54.139Z,63.07
2018-11-06T23:06:21.973Z,62.67
2018-11-06T23:08:50.079Z,62.84
2018-11-06T23:11:17.671Z,62.99
2018-11-06T23:13:45.527Z,62.97
2018-11-06T23:16:13.792Z,63.14
2018-11-06T23:18:41.413Z,62.85
2018-11-06T23:21:09.467Z,63.06
2018-11-06T23:23:37.843Z,62.97
2018-11-06T23:26:05.505Z,62.84
2018-11-06T23:28:33.123Z,63.42
2018-11-06T23:31:01.111Z,63.50
2018-11-06T23:33:29.068Z,63.24
2018-11-06T23:35:56.969Z,63.55
2018-11-06T23:38:25.087Z,63.53
2018-11-06T23:40:52.831Z,63.79
2018-11-06T23:43:20.696Z,63.54
2018-11-06T23:45:48.321Z,63.48
2018-11-06T23:48:15.970Z,63.86
2018-11-06T23:50:43.548Z,63.87
2018-11-06T23:53:11.224Z,63.66
2018-11-06T23:55:38.896Z,63.98
2018-11-06T23:58:06.568Z,63.86
